Time;durP1;ratioP1;P1;durP2;ratioP2;P2;SDS_P1;SDS_P2;PMS_P1;PMS_P2;Temp;Humidity;BMP_temperature;BMP_pressure;BME280_temperature;BME280_humidity;BME280_pressure;Samples;Min_cycle;Max_cycle;Signal;HPM_P1;HPM_P2
2022/01/13 00:02:03;;;;;;;83.03;39.47;;;-5.10;99.90;;;;;;4856600;29;20109;-81
2022/01/13 00:04:51;;;;;;;92.65;42.72;;;-5.10;99.90;;;;;;4892923;29;20387;-82
2022/01/13 00:07:40;;;;;;;93.43;44.53;;;-5.10;99.90;;;;;;4869126;29;20088;-81
2022/01/13 00:10:27;;;;;;;100.82;44.08;;;-5.10;99.90;;;;;;4851446;29;20093;-81
2022/01/13 00:13:22;;;;;;;100.30;43.35;;;-5.00;99.90;;;;;;4882102;29;20060;-82
2022/01/13 00:22:17;;;;;;;93.68;41.97;;;-4.90;99.90;;;;;;4891420;29;20402;-81
2022/01/13 00:25:08;;;;;;;97.65;44.03;;;-5.00;99.90;;;;;;4889864;29;20044;-83
2022/01/13 00:27:59;;;;;;;96.15;43.20;;;-5.00;99.90;;;;;;4883316;29;20075;-82
2022/01/13 00:30:51;;;;;;;94.80;43.95;;;-4.90;99.90;;;;;;4879311;29;20052;-83
2022/01/13 00:33:44;;;;;;;87.13;40.47;;;-5.00;99.90;;;;;;4895280;29;20336;-82
2022/01/13 00:36:37;;;;;;;85.80;40.50;;;-5.00;99.90;;;;;;4893946;29;20313;-83
2022/01/13 00:39:27;;;;;;;91.05;41.20;;;-5.10;99.90;;;;;;4896703;29;20056;-82
2022/01/13 00:42:17;;;;;;;93.18;41.85;;;-5.20;99.90;;;;;;4875907;29;20057;-83
2022/01/13 00:45:09;;;;;;;91.63;41.28;;;-5.20;99.90;;;;;;4874450;29;20152;-82
2022/01/13 00:47:59;;;;;;;69.68;30.63;;;-5.10;99.90;;;;;;4900643;29;20078;-83
2022/01/13 00:50:47;;;;;;;90.20;40.30;;;-5.10;99.90;;;;;;4864813;29;20080;-83
2022/01/13 00:53:37;;;;;;;89.90;41.80;;;-5.00;99.90;;;;;;4884985;29;20100;-81
2022/01/13 00:56:27;;;;;;;87.15;40.60;;;-5.00;99.90;;;;;;4883879;29;20084;-83
2022/01/13 00:59:15;;;;;;;92.45;40.20;;;-5.00;99.90;;;;;;4878440;29;20997;-82
2022/01/13 01:02:05;;;;;;;85.88;39.20;;;-4.90;99.90;;;;;;4875116;29;20152;-82
2022/01/13 01:04:53;;;;;;;86.05;41.20;;;-4.90;99.90;;;;;;4877835;29;20377;-83
2022/01/13 01:07:40;;;;;;;82.85;38.28;;;-5.00;99.90;;;;;;4871424;29;20196;-82
2022/01/13 01:10:27;;;;;;;84.72;38.70;;;-5.00;99.90;;;;;;4871359;29;20053;-83
2022/01/13 01:13:19;;;;;;;88.60;41.35;;;-5.10;99.90;;;;;;4874097;29;20056;-82
2022/01/13 01:16:12;;;;;;;64.72;29.63;;;-5.00;99.90;;;;;;4882612;29;20106;-83
2022/01/13 01:19:05;;;;;;;86.80;40.65;;;-5.00;99.90;;;;;;4876150;29;20057;-81
2022/01/13 01:25:21;;;;;;;80.47;37.38;;;-5.10;99.90;;;;;;4872866;29;20045;-83
2022/01/13 01:28:15;;;;;;;87.50;39.67;;;-5.10;99.90;;;;;;4884255;29;20105;-83
2022/01/13 01:31:03;;;;;;;86.13;40.67;;;-5.20;99.90;;;;;;4881458;29;20089;-83
2022/01/13 01:34:03;;;;;;;83.43;39.90;;;-5.10;99.90;;;;;;4878502;29;20041;-83
2022/01/13 01:36:52;;;;;;;83.70;38.50;;;-5.00;99.90;;;;;;4867205;29;20093;-84
2022/01/13 01:39:41;;;;;;;84.68;39.38;;;-4.80;99.90;;;;;;4857288;29;20082;-82
2022/01/13 01:42:29;;;;;;;85.63;41.17;;;-4.80;99.90;;;;;;4863200;29;20084;-81
2022/01/13 01:45:19;;;;;;;85.72;40.47;;;-4.70;99.90;;;;;;4869743;29;20053;-81
2022/01/13 01:48:09;;;;;;;87.57;39.72;;;-4.70;99.90;;;;;;4878531;29;20193;-83
2022/01/13 01:50:58;;;;;;;93.65;42.63;;;-4.60;99.90;;;;;;4872090;29;20053;-83
2022/01/13 01:53:45;;;;;;;92.10;41.70;;;-4.50;99.90;;;;;;4885188;29;20060;-81
2022/01/13 01:56:32;;;;;;;91.53;41.22;;;-4.40;99.90;;;;;;4863779;29;20085;-81
2022/01/13 01:59:29;;;;;;;92.68;41.67;;;-4.30;99.90;;;;;;4854941;29;20257;-81
2022/01/13 02:02:16;;;;;;;92.47;40.67;;;-4.20;99.90;;;;;;4892123;29;20080;-81
2022/01/13 02:05:04;;;;;;;94.28;40.88;;;-4.10;99.90;;;;;;4859875;29;20076;-82
2022/01/13 02:07:52;;;;;;;88.82;41.47;;;-4.00;99.90;;;;;;4875213;29;20457;-81
2022/01/13 02:10:44;;;;;;;86.75;40.88;;;-3.90;99.90;;;;;;4869105;29;20068;-82
2022/01/13 02:13:34;;;;;;;86.05;41.75;;;-3.80;99.90;;;;;;4907125;29;20123;-79
2022/01/13 02:19:24;;;;;;;89.38;43.40;;;-3.60;99.90;;;;;;4904865;29;20052;-83
2022/01/13 02:22:14;;;;;;;85.82;42.63;;;-3.50;99.90;;;;;;4880852;29;20045;-83
2022/01/13 02:25:03;;;;;;;87.13;43.17;;;-3.40;99.90;;;;;;4885698;29;20374;-81
2022/01/13 02:27:50;;;;;;;87.97;42.47;;;-3.30;99.90;;;;;;4891062;29;20057;-83
2022/01/13 02:30:43;;;;;;;83.35;43.47;;;-3.30;99.90;;;;;;4915146;29;20152;-82
2022/01/13 02:33:30;;;;;;;91.45;42.00;;;-3.20;99.90;;;;;;4892907;29;20048;-83
2022/01/13 02:36:22;;;;;;;92.13;44.80;;;-3.30;99.90;;;;;;4882431;29;20162;-81
2022/01/13 02:39:09;;;;;;;108.10;48.63;;;-3.20;99.90;;;;;;4881764;29;20131;-83
2022/01/13 02:42:01;;;;;;;104.63;47.05;;;-3.30;99.90;;;;;;4895989;29;20150;-81
2022/01/13 02:45:02;;;;;;;101.47;45.50;;;-3.30;99.90;;;;;;4896111;29;20161;-82
2022/01/13 02:48:12;;;;;;;91.30;42.40;;;-3.30;99.90;;;;;;4882466;29;20072;-83
2022/01/13 02:51:02;;;;;;;88.45;41.55;;;-3.30;99.90;;;;;;4891149;29;20131;-82
2022/01/13 02:53:53;;;;;;;82.35;39.65;;;-3.30;99.90;;;;;;4871190;29;20076;-82
2022/01/13 02:56:42;;;;;;;87.15;40.70;;;-3.30;99.90;;;;;;4894851;29;20522;-81
2022/01/13 02:59:31;;;;;;;78.47;39.55;;;-3.30;99.90;;;;;;4884979;29;20544;-83
2022/01/13 03:02:18;;;;;;;81.68;40.08;;;-3.20;99.90;;;;;;4864876;29;20049;-81
2022/01/13 03:05:12;;;;;;;84.82;41.08;;;-3.20;99.90;;;;;;4897622;29;20072;-81
2022/01/13 03:07:59;;;;;;;90.65;42.20;;;-3.10;99.90;;;;;;4879630;29;20056;-83
2022/01/13 03:10:47;;;;;;;86.35;42.08;;;-3.00;99.90;;;;;;4877023;29;20460;-83
2022/01/13 03:13:34;;;;;;;89.38;42.33;;;-3.00;99.90;;;;;;4876350;29;20061;-83
2022/01/13 03:16:21;;;;;;;88.93;40.60;;;-3.00;99.90;;;;;;4879895;29;20128;-83
2022/01/13 03:19:11;;;;;;;91.15;41.85;;;-3.00;99.90;;;;;;4889811;29;20128;-82
2022/01/13 03:22:02;;;;;;;83.85;42.35;;;-3.10;99.90;;;;;;4894410;29;20080;-82
2022/01/13 03:24:49;;;;;;;89.20;42.80;;;-3.10;99.90;;;;;;4883105;29;20757;-83
2022/01/13 03:27:37;;;;;;;83.10;41.88;;;-3.00;99.90;;;;;;4865411;29;20121;-82
2022/01/13 03:30:24;;;;;;;83.20;42.53;;;-2.90;99.90;;;;;;4881612;29;20053;-82
2022/01/13 03:33:13;;;;;;;93.70;43.40;;;-2.80;99.90;;;;;;4882543;29;20056;-81
2022/01/13 03:36:02;;;;;;;100.15;48.58;;;-2.70;99.90;;;;;;4880896;29;20455;-81
2022/01/13 03:38:49;;;;;;;103.90;49.53;;;-2.60;99.90;;;;;;4867817;29;20059;-81
2022/01/13 03:41:41;;;;;;;108.38;52.08;;;-2.50;99.90;;;;;;4871553;29;20052;-81
2022/01/13 03:44:31;;;;;;;112.03;51.55;;;-2.50;99.90;;;;;;4896953;29;20059;-82
2022/01/13 03:47:24;;;;;;;92.72;47.38;;;-2.40;99.90;;;;;;4882916;29;20131;-81
2022/01/13 03:50:13;;;;;;;;;;;-2.40;99.90;;;;;;4874831;29;20203;-82
2022/01/13 03:53:02;;;;;;;97.97;45.15;;;-2.30;99.90;;;;;;4901787;29;19938;-82
2022/01/13 03:56:28;;;;;;;97.43;47.03;;;-2.20;99.90;;;;;;4886114;29;20185;-82
2022/01/13 03:59:33;;;;;;;91.80;44.50;;;-2.20;99.90;;;;;;4880063;29;20196;-83
2022/01/13 04:02:20;;;;;;;95.32;46.33;;;-2.20;99.90;;;;;;4893493;29;20143;-83
2022/01/13 04:05:09;;;;;;;92.95;44.92;;;-2.20;99.90;;;;;;4869302;29;20488;-83
2022/01/13 04:07:56;;;;;;;84.65;42.92;;;-2.20;99.90;;;;;;4873969;29;20827;-82
2022/01/13 04:10:46;;;;;;;82.40;42.53;;;-2.30;99.90;;;;;;4868863;29;20104;-82
2022/01/13 04:16:37;;;;;;;77.18;40.53;;;-2.20;99.90;;;;;;4889639;29;20056;-82
2022/01/13 04:19:26;;;;;;;77.75;39.75;;;-2.30;99.90;;;;;;4878338;29;20064;-83
2022/01/13 04:22:15;;;;;;;78.68;39.38;;;-2.30;99.90;;;;;;4885596;29;20051;-82
2022/01/13 04:25:07;;;;;;;78.18;38.97;;;-2.40;99.90;;;;;;4891834;29;20048;-82
2022/01/13 04:28:02;;;;;;;76.80;39.25;;;-2.40;99.90;;;;;;4873407;29;20075;-83
2022/01/13 04:31:00;;;;;;;75.57;38.03;;;-2.40;99.90;;;;;;4870961;29;20408;-83
2022/01/13 04:33:50;;;;;;;77.80;39.05;;;-2.50;99.90;;;;;;4874716;29;20529;-83
2022/01/13 04:36:38;;;;;;;78.82;39.47;;;-2.50;99.90;;;;;;4872672;29;20125;-81
2022/01/13 04:39:31;;;;;;;73.70;36.10;;;-2.50;99.90;;;;;;4870836;29;20120;-81
2022/01/13 04:42:18;;;;;;;73.82;37.47;;;-2.60;99.90;;;;;;4885459;29;20143;-80
2022/01/13 04:45:08;;;;;;;73.40;36.85;;;-2.70;99.90;;;;;;4881917;29;20053;-83
2022/01/13 04:47:58;;;;;;;74.72;36.30;;;-2.70;99.90;;;;;;4885410;29;20100;-82
2022/01/13 04:50:46;;;;;;;71.78;36.92;;;-2.70;99.90;;;;;;4895795;29;20143;-81
2022/01/13 04:53:38;;;;;;;70.82;36.75;;;-2.70;99.90;;;;;;4900710;29;20053;-81
2022/01/13 04:56:29;;;;;;;77.75;38.00;;;-2.60;99.90;;;;;;4883357;29;20266;-81
2022/01/13 04:59:17;;;;;;;76.78;39.20;;;-2.60;99.90;;;;;;4875957;29;20159;-83
2022/01/13 05:02:04;;;;;;;90.70;39.55;;;-2.70;99.90;;;;;;4897700;29;20041;-81
2022/01/13 05:04:52;;;;;;;77.97;38.38;;;-2.70;99.90;;;;;;4881114;29;20044;-83
2022/01/13 05:07:40;;;;;;;71.63;37.78;;;-2.80;99.90;;;;;;4898307;29;20064;-82
2022/01/13 05:10:28;;;;;;;71.85;36.80;;;-3.00;99.90;;;;;;4897037;29;20108;-82
2022/01/13 05:13:15;;;;;;;71.43;35.55;;;-3.10;99.90;;;;;;4898844;29;20056;-81
2022/01/13 05:16:03;;;;;;;67.63;34.20;;;-3.30;99.90;;;;;;4877685;29;20060;-82
2022/01/13 05:19:07;;;;;;;71.65;35.30;;;-3.40;99.90;;;;;;4865524;29;20048;-82
2022/01/13 05:24:46;;;;;;;72.40;36.45;;;-3.60;99.90;;;;;;4888272;29;20052;-83
2022/01/13 05:27:33;;;;;;;78.32;36.13;;;-3.60;99.90;;;;;;4876407;29;20052;-83
2022/01/13 05:30:20;;;;;;;78.15;38.67;;;-3.70;99.90;;;;;;4874821;29;20492;-82
2022/01/13 05:33:08;;;;;;;72.65;37.83;;;-3.70;99.90;;;;;;4878472;29;20405;-83
2022/01/13 05:35:55;;;;;;;75.13;35.75;;;-3.70;99.90;;;;;;4893935;29;20052;-81
2022/01/13 05:38:43;;;;;;;79.55;37.35;;;-3.80;99.90;;;;;;4872181;29;20041;-83
2022/01/13 05:41:31;;;;;;;80.75;38.80;;;-3.90;99.90;;;;;;4897988;29;20564;-82
2022/01/13 06:07:48;;;;;;;83.43;38.55;;;-4.30;99.90;;;;;;5141372;23;20425;-83
2022/01/13 06:10:38;;;;;;;78.45;37.53;;;-4.30;99.90;;;;;;4885638;29;20124;-83
2022/01/13 06:13:25;;;;;;;80.22;38.63;;;-4.30;99.90;;;;;;4867912;29;20410;-81
2022/01/13 06:16:12;;;;;;;73.68;35.45;;;-4.40;99.90;;;;;;4871922;29;20651;-81
2022/01/13 06:19:00;;;;;;;79.88;37.92;;;-4.50;99.90;;;;;;4891603;29;20347;-81
2022/01/13 06:21:47;;;;;;;75.88;37.30;;;-4.50;99.90;;;;;;4884164;29;20571;-82
2022/01/13 06:24:35;;;;;;;85.25;39.53;;;-4.60;99.90;;;;;;4870490;29;20048;-82
2022/01/13 06:27:27;;;;;;;87.13;38.90;;;-4.50;99.90;;;;;;4879838;29;20128;-81
2022/01/13 06:30:17;;;;;;;83.75;39.20;;;-4.50;99.90;;;;;;4880844;29;20060;-81
2022/01/13 06:33:04;;;;;;;86.88;39.53;;;-4.50;99.90;;;;;;4878968;29;20459;-84
2022/01/13 06:35:52;;;;;;;89.57;38.58;;;-4.60;99.90;;;;;;4878133;29;20060;-82
2022/01/13 06:38:42;;;;;;;84.47;40.17;;;-4.60;99.90;;;;;;4886248;29;20044;-82
2022/01/13 06:41:30;;;;;;;98.53;42.97;;;-4.60;99.90;;;;;;4862892;29;20052;-82
2022/01/13 06:44:17;;;;;;;98.80;44.28;;;-4.60;99.90;;;;;;4851226;29;20063;-82
2022/01/13 06:47:05;;;;;;;100.43;42.95;;;-4.60;99.90;;;;;;4878948;29;20444;-81
2022/01/13 06:49:52;;;;;;;95.35;42.22;;;-4.60;99.90;;;;;;4879695;29;20104;-80
2022/01/13 06:52:40;;;;;;;84.75;41.10;;;-4.50;99.90;;;;;;4875806;29;20040;-81
2022/01/13 06:55:27;;;;;;;92.78;42.33;;;-4.60;99.90;;;;;;4886574;29;20052;-81
2022/01/13 06:58:14;;;;;;;85.63;39.55;;;-4.60;99.90;;;;;;4871410;29;20063;-81
2022/01/13 07:01:03;;;;;;;88.95;40.22;;;-4.70;99.90;;;;;;4893950;29;20108;-81
2022/01/13 07:03:59;;;;;;;90.40;42.88;;;-4.80;99.90;;;;;;4882324;29;20147;-81
2022/01/13 07:06:46;;;;;;;97.15;45.10;;;-4.80;99.90;;;;;;4877163;29;20056;-86
2022/01/13 07:09:34;;;;;;;103.22;46.38;;;-4.70;99.90;;;;;;4872729;29;20161;-84
2022/01/13 07:12:21;;;;;;;99.05;46.72;;;-4.60;99.90;;;;;;4877622;29;20108;-82
2022/01/13 07:15:10;;;;;;;100.15;45.70;;;-4.50;99.90;;;;;;4881618;29;20076;-82
2022/01/13 07:17:58;;;;;;;106.03;46.88;;;-4.50;99.90;;;;;;4880047;29;20207;-82
2022/01/13 07:20:49;;;;;;;105.32;47.90;;;-4.50;99.90;;;;;;4878064;29;20447;-82
2022/01/13 07:23:36;;;;;;;104.53;46.20;;;-4.60;99.90;;;;;;4883803;29;20068;-82
2022/01/13 07:26:26;;;;;;;101.60;46.53;;;-4.60;99.90;;;;;;4886718;29;20105;-82
2022/01/13 07:29:14;;;;;;;105.18;47.42;;;-4.60;99.90;;;;;;4885876;29;20049;-81
2022/01/13 07:32:02;;;;;;;104.70;48.75;;;-4.60;99.90;;;;;;4873553;29;20136;-82
2022/01/13 07:34:49;;;;;;;102.22;45.88;;;-4.60;99.90;;;;;;4866103;29;20108;-81
2022/01/13 07:37:36;;;;;;;104.28;47.83;;;-4.50;99.90;;;;;;4888774;29;20071;-80
2022/01/13 07:40:24;;;;;;;102.78;45.53;;;-4.50;99.90;;;;;;4899846;29;20418;-81
2022/01/13 07:43:16;;;;;;;98.60;45.22;;;-4.50;99.90;;;;;;4877326;29;20052;-82
2022/01/13 07:46:04;;;;;;;100.07;44.35;;;-4.50;99.90;;;;;;4879963;29;20056;-82
2022/01/13 07:48:52;;;;;;;90.10;44.65;;;-4.40;99.90;;;;;;4882654;29;20392;-81
2022/01/13 07:51:39;;;;;;;97.80;43.47;;;-4.40;99.90;;;;;;4882183;29;20064;-80
2022/01/13 07:54:30;;;;;;;91.82;41.95;;;-4.30;99.90;;;;;;4906549;29;20045;-79
2022/01/13 07:57:22;;;;;;;91.88;40.30;;;-4.20;99.90;;;;;;4877118;29;20473;-82
2022/01/13 08:00:14;;;;;;;88.50;41.28;;;-4.10;99.90;;;;;;4884954;29;20044;-82
2022/01/13 08:03:02;;;;;;;87.57;41.20;;;-4.10;99.90;;;;;;4885456;29;20043;-81
2022/01/13 08:05:49;;;;;;;77.03;38.13;;;-4.00;99.90;;;;;;4884862;29;20142;-81
2022/01/13 08:08:39;;;;;;;81.20;40.13;;;-4.00;99.90;;;;;;4885360;29;20064;-81
2022/01/13 08:11:28;;;;;;;85.53;39.60;;;-4.00;99.90;;;;;;4899613;29;20422;-82
2022/01/13 08:14:17;;;;;;;77.80;39.67;;;-3.90;99.90;;;;;;4887252;29;20075;-81
2022/01/13 08:17:07;;;;;;;89.38;42.67;;;-3.90;99.90;;;;;;4881820;29;20128;-81
2022/01/13 08:19:55;;;;;;;83.60;41.08;;;-3.70;99.90;;;;;;4895031;29;20048;-81
2022/01/13 08:22:42;;;;;;;87.97;41.97;;;-3.60;99.90;;;;;;4869960;29;20059;-81
2022/01/13 08:25:33;;;;;;;83.22;40.17;;;-3.50;99.90;;;;;;4900094;29;20128;-81
2022/01/13 08:28:22;;;;;;;86.25;42.08;;;-3.40;99.90;;;;;;4900319;29;20059;-81
2022/01/13 08:31:10;;;;;;;86.65;42.78;;;-3.10;99.90;;;;;;4902464;29;20121;-80
2022/01/13 08:33:59;;;;;;;90.93;42.15;;;-2.90;99.90;;;;;;4876298;29;20390;-81
2022/01/13 08:36:46;;;;;;;98.78;43.05;;;-2.70;99.90;;;;;;4888845;29;20060;-79
2022/01/13 08:39:39;;;;;;;91.38;44.63;;;-2.40;99.90;;;;;;4879625;29;20048;-78
2022/01/13 08:42:27;;;;;;;;;;;-2.20;99.90;;;;;;4886796;29;20423;-81
2022/01/13 08:45:15;;;;;;;90.25;41.67;;;-1.90;99.90;;;;;;4907507;29;19953;-80
2022/01/13 08:48:02;;;;;;;87.28;42.38;;;-1.60;99.90;;;;;;4876240;29;20368;-80
2022/01/13 08:50:52;;;;;;;77.90;41.08;;;-1.60;99.90;;;;;;4890546;29;20131;-82
2022/01/13 08:53:40;;;;;;;76.28;39.20;;;-1.60;99.90;;;;;;4894947;29;20059;-80
2022/01/13 08:56:27;;;;;;;80.88;41.92;;;-1.40;99.90;;;;;;4878154;29;20056;-81
2022/01/13 08:59:15;;;;;;;72.95;39.58;;;-1.20;99.90;;;;;;4880148;29;20390;-81
2022/01/13 09:02:02;;;;;;;75.97;39.38;;;-1.30;99.90;;;;;;4907091;29;20052;-81
2022/01/13 09:04:51;;;;;;;70.50;38.20;;;-1.20;99.90;;;;;;4884237;29;20376;-83
2022/01/13 09:07:39;;;;;;;67.75;37.75;;;-1.10;99.90;;;;;;4884456;29;20193;-81
2022/01/13 09:10:29;;;;;;;62.47;35.05;;;-0.80;99.90;;;;;;4902570;29;20092;-82
2022/01/13 09:13:17;;;;;;;58.28;34.13;;;-0.60;99.90;;;;;;4873092;29;20147;-82
2022/01/13 09:16:14;;;;;;;62.53;33.88;;;-0.60;99.90;;;;;;4881628;29;20068;-81
2022/01/13 09:19:11;;;;;;;58.90;33.75;;;-0.50;99.90;;;;;;4893095;29;20060;-81
2022/01/13 09:21:58;;;;;;;58.95;32.75;;;-0.40;99.90;;;;;;4900446;29;20147;-81
2022/01/13 09:24:45;;;;;;;58.47;34.55;;;-0.20;99.90;;;;;;4872492;29;20422;-82
2022/01/13 09:27:38;;;;;;;58.42;33.05;;;0.20;99.90;;;;;;4881534;29;20045;-83
2022/01/13 09:30:28;;;;;;;54.08;31.20;;;0.70;99.90;;;;;;4883548;29;20067;-81
2022/01/13 09:33:16;;;;;;;51.70;29.20;;;0.80;99.90;;;;;;4895465;29;20056;-81
2022/01/13 09:36:08;;;;;;;56.17;30.88;;;0.90;99.90;;;;;;4894900;29;20053;-83
2022/01/13 09:38:59;;;;;;;47.58;27.90;;;1.40;99.90;;;;;;4881302;29;20052;-83
2022/01/13 09:41:48;;;;;;;45.38;26.75;;;2.30;99.90;;;;;;4875732;29;20041;-82
2022/01/13 09:44:38;;;;;;;39.95;25.48;;;3.50;99.90;;;;;;4892533;29;20053;-80
2022/01/13 09:47:29;;;;;;;36.03;24.38;;;4.40;99.90;;;;;;4882553;29;20663;-80
2022/01/13 09:50:20;;;;;;;36.85;24.85;;;5.20;99.90;;;;;;4870955;29;20052;-81
2022/01/13 09:53:08;;;;;;;40.22;25.23;;;6.10;99.90;;;;;;4879150;29;20470;-81
2022/01/13 09:55:55;;;;;;;37.03;25.10;;;7.10;99.90;;;;;;4887560;29;20048;-84
2022/01/13 09:58:47;;;;;;;36.28;23.63;;;7.90;88.10;;;;;;4873506;29;20048;-80
2022/01/13 10:01:34;;;;;;;42.28;27.30;;;7.90;84.40;;;;;;4861031;29;20048;-84
2022/01/13 10:04:23;;;;;;;34.80;26.02;;;8.00;79.40;;;;;;4863305;29;20056;-83
2022/01/13 10:07:17;;;;;;;35.30;24.50;;;7.90;79.10;;;;;;4879297;29;20057;-83
2022/01/13 10:10:08;;;;;;;32.45;22.45;;;8.50;77.10;;;;;;4886196;29;20052;-82
2022/01/13 10:13:07;;;;;;;32.22;23.02;;;8.80;73.20;;;;;;4895962;29;20052;-83
2022/01/13 10:19:00;;;;;;;31.23;21.85;;;8.90;73.10;;;;;;4881895;29;20041;-85
2022/01/13 10:22:06;;;;;;;26.17;20.15;;;9.80;70.00;;;;;;4891726;29;20709;-83
2022/01/13 10:24:56;;;;;;;28.20;20.90;;;10.30;67.00;;;;;;4901448;29;20043;-84
2022/01/13 10:27:43;;;;;;;30.60;21.10;;;10.50;63.60;;;;;;4900729;29;20049;-83
2022/01/13 10:30:36;;;;;;;22.75;15.73;;;9.70;64.30;;;;;;4884300;29;20044;-83
2022/01/13 10:33:26;;;;;;;26.65;19.40;;;11.10;60.90;;;;;;4869942;29;20490;-82
2022/01/13 10:36:14;;;;;;;31.80;22.85;;;11.50;58.50;;;;;;4899534;29;20064;-83
2022/01/13 10:39:07;;;;;;;29.50;21.23;;;11.10;61.80;;;;;;4896774;29;20131;-82
2022/01/13 10:42:20;;;;;;;26.98;21.05;;;11.00;62.40;;;;;;4882445;29;20048;-84
2022/01/13 10:45:18;;;;;;;32.25;23.17;;;10.60;59.90;;;;;;4873889;29;20144;-84
2022/01/13 10:48:23;;;;;;;31.90;22.13;;;10.20;64.10;;;;;;4889433;29;20214;-84
2022/01/13 10:51:11;;;;;;;33.65;23.63;;;9.80;65.00;;;;;;4896571;29;20057;-83
2022/01/13 10:54:01;;;;;;;28.83;21.83;;;9.30;65.50;;;;;;4898876;29;20064;-81
2022/01/13 10:57:08;;;;;;;29.33;21.63;;;9.10;67.30;;;;;;4884584;29;20063;-83
2022/01/13 10:59:56;;;;;;;35.05;23.77;;;9.20;67.90;;;;;;4893806;29;20060;-84
2022/01/13 11:02:45;;;;;;;28.35;19.80;;;9.30;67.30;;;;;;4895770;29;20688;-82
2022/01/13 11:05:58;;;;;;;31.02;21.33;;;9.30;66.40;;;;;;4883317;29;20485;-82
2022/01/13 11:08:48;;;;;;;30.55;20.65;;;9.10;65.40;;;;;;4901977;29;20055;-82
2022/01/13 11:11:46;;;;;;;25.20;17.80;;;9.90;66.40;;;;;;4880446;29;20048;-82
2022/01/13 11:14:40;;;;;;;29.27;19.38;;;10.60;63.40;;;;;;4876519;29;20056;-82
2022/01/13 11:17:28;;;;;;;29.77;18.58;;;10.30;61.00;;;;;;4896155;29;20116;-82
2022/01/13 11:20:21;;;;;;;24.60;17.23;;;10.60;62.10;;;;;;4879722;29;20132;-81
2022/01/13 11:23:08;;;;;;;;;;;10.80;60.90;;;;;;4880939;29;20390;-82
2022/01/13 11:25:57;;;;;;;23.25;16.30;;;12.20;58.00;;;;;;4882853;29;20683;-82
2022/01/13 11:28:44;;;;;;;23.10;16.92;;;11.80;57.70;;;;;;4887594;29;20056;-80
2022/01/13 11:31:38;;;;;;;20.70;15.75;;;12.20;56.30;;;;;;4881240;29;20067;-83
2022/01/13 11:34:25;;;;;;;20.08;14.25;;;11.60;57.90;;;;;;4870991;29;20117;-81
2022/01/13 11:37:15;;;;;;;21.35;14.38;;;11.80;56.20;;;;;;4881082;29;20056;-82
2022/01/13 11:40:06;;;;;;;19.40;14.20;;;11.90;56.50;;;;;;4891171;29;20045;-83
2022/01/13 11:43:32;;;;;;;18.00;13.52;;;12.90;55.00;;;;;;4893460;29;20089;-81
2022/01/13 11:46:24;;;;;;;18.25;13.00;;;12.80;53.00;;;;;;4887425;29;20478;-82
2022/01/13 11:49:21;;;;;;;19.10;12.02;;;12.70;53.40;;;;;;4883443;29;20339;-81
2022/01/13 11:52:26;;;;;;;14.88;12.10;;;12.50;55.00;;;;;;4899532;29;20052;-80
2022/01/13 11:55:32;;;;;;;15.93;11.10;;;12.60;53.80;;;;;;4869471;29;20060;-81
2022/01/13 11:58:47;;;;;;;13.77;9.98;;;12.00;55.00;;;;;;4892536;29;20055;-81
2022/01/13 12:01:35;;;;;;;15.93;10.60;;;11.80;54.70;;;;;;4895806;29;20045;-81
2022/01/13 12:04:25;;;;;;;15.70;9.48;;;11.90;55.90;;;;;;4870600;29;20657;-80
2022/01/13 12:07:39;;;;;;;12.07;7.80;;;11.60;55.90;;;;;;4897651;29;20060;-80
2022/01/13 12:10:26;;;;;;;13.88;9.40;;;11.80;56.60;;;;;;4878311;29;20061;-83
2022/01/13 12:13:28;;;;;;;13.38;9.90;;;12.60;53.30;;;;;;4878455;29;20061;-84
2022/01/13 12:16:18;;;;;;;11.60;8.68;;;12.80;53.00;;;;;;4892327;29;20056;-83
2022/01/13 12:19:12;;;;;;;14.43;10.07;;;13.60;51.80;;;;;;4878589;29;20044;-81
2022/01/13 12:22:06;;;;;;;13.50;9.52;;;13.50;51.20;;;;;;4868884;29;20044;-82
2022/01/13 12:25:03;;;;;;;12.00;9.23;;;13.10;52.90;;;;;;4862947;29;20131;-81
2022/01/13 12:27:52;;;;;;;13.77;9.52;;;13.70;51.30;;;;;;4879003;29;20430;-81
2022/01/13 12:30:44;;;;;;;14.82;10.32;;;14.50;49.80;;;;;;4875736;29;20045;-81
2022/01/13 12:33:34;;;;;;;11.82;10.27;;;15.40;47.20;;;;;;4877994;29;20061;-80
2022/01/13 12:36:27;;;;;;;12.77;10.18;;;14.60;47.90;;;;;;4883570;29;20128;-81
2022/01/13 12:39:17;;;;;;;13.60;10.60;;;14.60;49.30;;;;;;4881748;29;20055;-81
2022/01/13 12:42:16;;;;;;;15.05;11.23;;;15.30;48.10;;;;;;4887322;29;20067;-81
2022/01/13 12:45:43;;;;;;;16.27;12.60;;;15.60;47.00;;;;;;4898621;29;20048;-80
2022/01/13 12:48:29;;;;;;;13.70;11.48;;;16.40;45.10;;;;;;4895525;29;20067;-82
2022/01/13 12:51:18;;;;;;;14.98;11.98;;;16.30;44.60;;;;;;4884847;29;20207;-84
2022/01/13 12:54:06;;;;;;;15.27;11.93;;;16.00;46.00;;;;;;4899492;29;20045;-82
2022/01/13 12:56:56;;;;;;;16.67;11.63;;;16.10;45.60;;;;;;4900160;29;20059;-81
2022/01/13 12:59:46;;;;;;;15.70;11.75;;;16.00;46.00;;;;;;4902906;29;20146;-80
2022/01/13 13:02:36;;;;;;;15.55;10.73;;;16.20;45.90;;;;;;4888827;29;20128;-81
2022/01/13 13:05:44;;;;;;;16.90;11.85;;;16.40;44.30;;;;;;4884175;29;20096;-82
2022/01/13 13:08:32;;;;;;;13.00;9.50;;;16.40;44.10;;;;;;4883577;29;20482;-84
2022/01/13 13:11:20;;;;;;;13.85;10.45;;;16.30;44.10;;;;;;4877380;29;20635;-81
2022/01/13 13:14:22;;;;;;;12.35;9.13;;;15.90;44.20;;;;;;4899397;29;20112;-81
2022/01/13 13:17:12;;;;;;;14.48;10.07;;;14.80;46.30;;;;;;4885919;29;20068;-81
2022/01/13 13:20:02;;;;;;;15.80;10.90;;;13.90;48.10;;;;;;4898655;29;20045;-82
2022/01/13 13:22:53;;;;;;;14.88;10.80;;;13.50;49.80;;;;;;4880024;29;20070;-83
2022/01/13 13:25:55;;;;;;;12.80;10.18;;;13.50;49.40;;;;;;4890279;29;20044;-80
2022/01/13 13:28:51;;;;;;;24.63;9.65;;;13.00;49.60;;;;;;4878949;29;20053;-82
2022/01/13 13:31:45;;;;;;;15.43;10.93;;;13.00;51.00;;;;;;4889074;29;20485;-81
2022/01/13 13:34:38;;;;;;;16.35;12.30;;;12.70;51.70;;;;;;4890180;29;20056;-85
2022/01/13 13:37:29;;;;;;;15.43;10.85;;;12.00;52.30;;;;;;4884914;29;20040;-83
2022/01/13 13:40:23;;;;;;;21.20;12.82;;;11.90;53.80;;;;;;4891128;29;20044;-81
2022/01/13 13:43:11;;;;;;;16.80;11.85;;;11.20;54.40;;;;;;4888744;29;20111;-84
2022/01/13 13:46:04;;;;;;;19.83;11.80;;;11.00;55.70;;;;;;4883784;29;20044;-80
2022/01/13 13:48:54;;;;;;;16.27;10.82;;;11.00;55.20;;;;;;4881632;29;20040;-81
2022/01/13 13:51:42;;;;;;;14.70;10.43;;;11.30;55.80;;;;;;4883536;29;20116;-80
2022/01/13 13:54:35;;;;;;;13.70;10.57;;;11.60;54.30;;;;;;4876370;29;20057;-84
2022/01/13 13:57:34;;;;;;;14.98;10.63;;;11.90;53.80;;;;;;4880640;29;20069;-83
2022/01/13 14:00:26;;;;;;;16.15;11.30;;;12.40;53.90;;;;;;4882706;29;20114;-84
2022/01/13 14:03:20;;;;;;;15.57;10.98;;;12.20;53.10;;;;;;4883647;29;20056;-82
2022/01/13 14:06:11;;;;;;;18.20;10.70;;;11.80;53.70;;;;;;4872388;29;20115;-81
2022/01/13 14:08:59;;;;;;;14.70;10.75;;;11.80;54.00;;;;;;4879880;29;20045;-84
2022/01/13 14:11:48;;;;;;;17.05;11.02;;;12.20;52.90;;;;;;4874125;29;20058;-83
2022/01/13 14:14:41;;;;;;;15.50;11.15;;;12.30;52.80;;;;;;4887737;29;20044;-82
2022/01/13 14:17:30;;;;;;;17.63;12.20;;;12.20;53.60;;;;;;4884899;29;20428;-82
2022/01/13 14:20:24;;;;;;;16.65;11.70;;;12.30;53.20;;;;;;4888800;29;20055;-80
2022/01/13 14:23:24;;;;;;;18.38;12.15;;;12.40;53.00;;;;;;4893978;29;20036;-82
2022/01/13 14:26:14;;;;;;;20.02;12.90;;;12.70;51.10;;;;;;4888558;29;20054;-81
2022/01/13 14:29:06;;;;;;;19.27;12.18;;;12.60;51.90;;;;;;4898702;29;20040;-82
2022/01/13 14:31:54;;;;;;;17.27;12.10;;;12.90;52.10;;;;;;4874543;29;20048;-82
2022/01/13 14:34:46;;;;;;;20.60;12.50;;;12.90;51.60;;;;;;4880905;29;20097;-82
2022/01/13 14:37:34;;;;;;;17.38;12.40;;;13.10;51.40;;;;;;4896130;29;20482;-82
2022/01/13 14:40:23;;;;;;;22.55;12.43;;;13.00;51.00;;;;;;4874850;29;20036;-81
2022/01/13 14:43:18;;;;;;;19.98;12.65;;;13.00;51.30;;;;;;4881955;29;20071;-82
2022/01/13 14:46:07;;;;;;;17.98;13.07;;;13.10;51.20;;;;;;4872790;29;20049;-80
2022/01/13 14:48:57;;;;;;;21.52;12.65;;;13.00;50.40;;;;;;4883328;29;20049;-80
2022/01/13 14:51:49;;;;;;;18.80;13.70;;;12.80;51.30;;;;;;4884857;29;20048;-82
2022/01/13 14:54:42;;;;;;;18.40;12.95;;;12.90;50.90;;;;;;4887751;29;20044;-81
2022/01/13 14:57:32;;;;;;;21.80;13.82;;;12.70;51.30;;;;;;4883556;29;20099;-82
2022/01/13 15:00:26;;;;;;;19.83;14.50;;;11.90;52.70;;;;;;4894965;29;20056;-80
2022/01/13 15:03:15;;;;;;;25.02;15.88;;;10.90;54.70;;;;;;4883853;29;20188;-81
2022/01/13 15:06:03;;;;;;;28.13;16.08;;;10.70;56.30;;;;;;4880451;29;20060;-80
2022/01/13 15:08:54;;;;;;;27.65;16.77;;;10.80;56.00;;;;;;4878996;29;20143;-80
2022/01/13 15:11:41;;;;;;;26.55;16.88;;;10.20;57.50;;;;;;4880786;29;20063;-83
2022/01/13 15:14:29;;;;;;;26.40;15.45;;;9.80;58.70;;;;;;4869147;29;20049;-81